Coimbatore, India

3:14 PM IST on August 27, 2014 (GMT +0530)
Coimbatore | Change Station
CLOSE
Current Station
Airport
Location: Coimbatore,
Elevation: 1309 ft
Nearby Weather Stations

Elev 1309 ft 11.03 °N, 77.04 °E | Updated 14 minutes ago

Partly Cloudy
Partly Cloudy
84 °F
Feels Like 87 °F
N
9
Wind Variable Wind from SW
Gusts 21 mph

Today
High -- | Low -- °F
--% Chance of Precip.
Yesterday
High -- | Low -- °F
Precip. -- in
6:12 AM 6:34 PM
Waxing Crescent, 3% visible
Pressure 29.80 in
Visibility 4.3 miles
Clouds Few 1500 ft
Heat Index 87 °F
Dew Point 68 °F
Humidity 58%
Rainfall 0.00 in
Snow Depth Not available.
UV 10 out of 12
Pollen Not available.
Air Quality Not available.
Flu Activity Not available.
METAR VOCB 270930Z 23008G18KT 7000 FEW015 29/20 Q1009 NOSIG

More Conditions Fewer Conditions

Pressure 29.80 in
Visibility 4.3 miles
Clouds Few 1500 ft
Heat Index 87 °F
Dew Point 68 °F
Humidity 58%
Rainfall 0.00 in
Snow Depth Not available.
UV 10 out of 12
Pollen Not available.
Air Quality Not available.
Flu Activity Not available.
METAR VOCB 270930Z 23008G18KT 7000 FEW015 29/20 Q1009 NOSIG

More Conditions Fewer Conditions

10-Day Weather Forecast

Almanac

Astronomy

Aug. 27, 2014 Rise Set
Actual Time 6:12 AM IST 6:34 PM IST
Civil Twilight 5:50 AM IST 6:56 PM IST
Nautical Twilight 5:25 AM IST 7:21 PM IST
Astronomical Twilight 5:00 AM IST 7:46 PM IST
Moon 7:18 AM IST 7:40 PM IST
Length of Visible Light 13h 05m
Length of Day
12h 22m
Tomorrow will be 0m 35s shorter.
Waxing Crescent, 3% of the Moon is Illuminated
Today
Waxing Crescent
Sep 2
First Quarter
Sep 8
Full
Sep 15
Last Quarter
Sep 24
New

Yesterday's Extremes

Country Highs Country Lows

Community

WunderPhotos

Upload Photos

1,747,661 photos uploaded!

Nearby

Snow Depth

Not available.

Earthquake Activity

City Distance Mag. Time & Date
No recent earthquake activity has been reported nearby.
Minimum magnitude displayed is 2.5.

Coastal Water Temperatures

Place Temperature
No Stations Reporting

Nearby Weather Stations